createdAt,value
2023-03-01T00:01:09.814Z,102.85
2023-03-01T00:03:36.578Z,106.72
2023-03-01T00:06:04.414Z,104.47
2023-03-01T00:08:31.444Z,104.25
2023-03-01T00:11:11.081Z,101.82
2023-03-01T00:13:38.041Z,108.78
2023-03-01T00:16:12.879Z,102.35
2023-03-01T00:18:40.010Z,104.20
2023-03-01T00:21:06.822Z,110.00
2023-03-01T00:23:35.731Z,105.38
2023-03-01T00:26:02.930Z,103.53
2023-03-01T00:28:29.623Z,103.93
2023-03-01T00:30:56.349Z,107.15
2023-03-01T00:33:23.105Z,100.78
2023-03-01T00:35:49.810Z,102.25
2023-03-01T00:38:16.477Z,101.07
2023-03-01T00:40:43.105Z,102.20
2023-03-01T00:43:09.969Z,104.85
2023-03-01T00:45:36.644Z,103.15
2023-03-01T00:48:03.433Z,103.38
2023-03-01T00:50:30.300Z,104.35
2023-03-01T00:52:57.389Z,106.95
2023-03-01T00:55:24.689Z,101.90
2023-03-01T00:57:51.757Z,102.68
2023-03-01T01:00:19.907Z,100.55
2023-03-01T01:02:46.637Z,105.28
2023-03-01T01:05:13.770Z,102.72
2023-03-01T01:07:40.685Z,101.20
2023-03-01T01:10:08.115Z,105.45
2023-03-01T01:12:34.898Z,102.22
2023-03-01T01:15:01.578Z,105.30
2023-03-01T01:17:28.219Z,101.93
2023-03-01T01:19:54.858Z,103.40
2023-03-01T01:22:21.493Z,104.70
2023-03-01T01:24:48.117Z,107.03
2023-03-01T01:27:14.738Z,102.32
2023-03-01T01:29:42.892Z,103.35
2023-03-01T01:32:09.631Z,102.32
2023-03-01T01:34:36.372Z,102.68
2023-03-01T01:37:03.843Z,107.07
2023-03-01T01:39:30.577Z,103.80
2023-03-01T01:41:57.258Z,104.38
2023-03-01T01:44:29.136Z,102.85
2023-03-01T01:47:03.501Z,104.72
2023-03-01T01:49:30.107Z,104.72
2023-03-01T01:52:26.369Z,104.70
2023-03-01T01:55:00.921Z,104.15
2023-03-01T01:57:40.756Z,105.88
2023-03-01T02:00:12.906Z,104.40
2023-03-01T02:02:40.909Z,103.60
2023-03-01T02:05:15.536Z,101.65
2023-03-01T02:07:43.404Z,101.10
2023-03-01T02:10:10.666Z,104.78
2023-03-01T02:12:37.789Z,102.63
2023-03-01T02:15:04.962Z,105.50
2023-03-01T02:17:31.573Z,105.50
2023-03-01T02:20:08.454Z,102.30
2023-03-01T02:22:38.010Z,103.80
2023-03-01T02:25:04.651Z,104.95
2023-03-01T02:28:11.765Z,105.60
2023-03-01T02:30:58.585Z,105.28
2023-03-01T02:33:27.687Z,100.85
2023-03-01T02:35:56.702Z,102.50
2023-03-01T02:38:24.013Z,106.57
2023-03-01T02:40:52.081Z,102.22
2023-03-01T02:43:21.987Z,101.43
2023-03-01T02:45:53.659Z,105.88
2023-03-01T02:48:21.111Z,101.88
2023-03-01T02:51:03.396Z,104.40
2023-03-01T02:53:50.247Z,105.38
2023-03-01T02:56:17.577Z,104.90
2023-03-01T02:58:52.124Z,106.28
2023-03-01T03:01:21.544Z,104.68
2023-03-01T03:03:48.398Z,103.18
2023-03-01T03:06:15.224Z,110.30
2023-03-01T03:08:41.978Z,106.68
2023-03-01T03:11:08.627Z,105.93
2023-03-01T03:13:35.283Z,104.90
2023-03-01T03:16:03.633Z,103.30
2023-03-01T03:18:30.328Z,109.93
2023-03-01T03:20:57.066Z,105.45
2023-03-01T03:23:24.107Z,104.53
2023-03-01T03:25:51.638Z,106.63
2023-03-01T03:28:18.906Z,106.05
2023-03-01T03:30:45.908Z,106.60
2023-03-01T03:33:13.983Z,104.18
2023-03-01T03:35:48.116Z,103.55
2023-03-01T03:38:17.684Z,101.80
2023-03-01T03:40:50.191Z,104.30
2023-03-01T03:43:22.604Z,102.82
2023-03-01T03:45:51.928Z,110.95
2023-03-01T03:48:19.431Z,106.68
2023-03-01T03:50:52.346Z,109.28
2023-03-01T03:53:19.893Z,105.70
2023-03-01T03:55:50.087Z,111.05
2023-03-01T03:58:20.497Z,106.18
2023-03-01T04:00:49.810Z,105.20
2023-03-01T04:03:19.684Z,103.70
2023-03-01T04:05:48.256Z,106.05
2023-03-01T04:08:14.963Z,104.80
2023-03-01T04:10:44.484Z,100.82
2023-03-01T04:13:13.933Z,105.70
2023-03-01T04:15:40.781Z,107.13
2023-03-01T04:18:08.211Z,106.53
2023-03-01T04:20:36.474Z,105.80
2023-03-01T04:23:16.996Z,104.80
2023-03-01T04:25:57.079Z,108.20
2023-03-01T04:28:29.162Z,108.68
2023-03-01T04:30:58.254Z,104.10
2023-03-01T04:33:26.289Z,106.63
2023-03-01T04:35:53.157Z,107.75
2023-03-01T04:38:22.111Z,103.82
2023-03-01T04:40:49.202Z,112.10
2023-03-01T04:43:15.886Z,109.00
2023-03-01T04:45:42.638Z,108.65
2023-03-01T04:48:09.678Z,103.13
2023-03-01T04:50:36.597Z,107.05
2023-03-01T04:53:03.690Z,107.05
2023-03-01T04:55:30.897Z,109.00
2023-03-01T04:57:57.768Z,104.13
2023-03-01T05:00:24.761Z,110.00
2023-03-01T05:02:56.680Z,106.03
2023-03-01T05:05:45.127Z,106.90
2023-03-01T05:08:18.440Z,104.03
2023-03-01T05:10:50.783Z,106.25
2023-03-01T05:13:21.909Z,111.68
2023-03-01T05:15:55.479Z,105.70
2023-03-01T05:18:26.686Z,109.68
2023-03-01T05:20:59.313Z,107.35
2023-03-01T05:23:26.352Z,105.13
2023-03-01T05:25:53.417Z,106.53
2023-03-01T05:28:21.394Z,106.45
2023-03-01T05:30:48.188Z,109.20
2023-03-01T05:33:14.907Z,107.78
2023-03-01T05:35:43.529Z,106.80
2023-03-01T05:38:14.481Z,108.15
2023-03-01T05:40:43.169Z,110.32
2023-03-01T05:43:10.156Z,104.85
2023-03-01T05:45:38.730Z,109.25
2023-03-01T05:48:06.582Z,110.18
2023-03-01T05:50:40.137Z,110.90
2023-03-01T05:53:19.822Z,106.93
2023-03-01T05:55:48.330Z,105.07
2023-03-01T05:58:17.404Z,107.30
2023-03-01T06:00:45.346Z,106.15
2023-03-01T06:03:13.709Z,108.53
2023-03-01T06:05:41.486Z,108.28
2023-03-01T06:08:08.439Z,106.07
2023-03-01T06:10:35.046Z,106.00
2023-03-01T06:13:01.860Z,108.68
2023-03-01T06:15:28.603Z,107.95
2023-03-01T06:17:59.670Z,114.20
2023-03-01T06:20:29.154Z,106.13
2023-03-01T06:22:56.066Z,108.53
2023-03-01T06:25:24.407Z,107.03
2023-03-01T06:27:51.320Z,110.97
2023-03-01T06:30:19.834Z,114.72
2023-03-01T06:32:46.467Z,106.65
2023-03-01T06:35:15.261Z,107.90
2023-03-01T06:37:42.258Z,109.65
2023-03-01T06:40:09.914Z,107.38
2023-03-01T06:42:37.267Z,107.60
2023-03-01T06:45:05.258Z,112.93
2023-03-01T06:47:32.277Z,112.80
2023-03-01T06:49:58.898Z,110.63
2023-03-01T06:52:25.554Z,105.57
2023-03-01T06:54:52.203Z,108.60
2023-03-01T06:57:18.848Z,109.70
2023-03-01T06:59:45.521Z,105.90
2023-03-01T07:02:13.246Z,107.70
2023-03-01T07:04:40.217Z,103.43
2023-03-01T07:07:07.149Z,105.18
2023-03-01T07:09:33.782Z,111.38
2023-03-01T07:12:00.608Z,109.75
2023-03-01T07:14:27.420Z,106.20
2023-03-01T07:16:55.255Z,106.75
2023-03-01T07:19:22.748Z,109.35
2023-03-01T07:21:49.477Z,105.13
2023-03-01T07:24:16.264Z,106.80
2023-03-01T07:26:42.901Z,106.43
2023-03-01T07:29:11.215Z,111.22
2023-03-01T07:31:37.972Z,106.18
2023-03-01T07:34:04.628Z,109.95
2023-03-01T07:36:31.571Z,106.05
2023-03-01T07:38:58.876Z,108.95
2023-03-01T07:41:25.815Z,114.28
2023-03-01T07:43:52.435Z,109.13
2023-03-01T07:46:20.148Z,107.13
2023-03-01T07:48:46.921Z,107.60
2023-03-01T07:51:13.932Z,107.35
2023-03-01T07:53:40.564Z,108.65
2023-03-01T07:56:10.448Z,107.60
2023-03-01T07:58:38.746Z,110.43
2023-03-01T08:01:11.813Z,112.05
2023-03-01T08:03:38.546Z,105.63
2023-03-01T08:06:08.065Z,104.43
2023-03-01T08:08:35.409Z,105.57
2023-03-01T08:11:03.569Z,105.47
2023-03-01T08:13:30.932Z,108.68
2023-03-01T08:16:08.977Z,104.97
2023-03-01T08:18:35.639Z,108.00
2023-03-01T08:21:07.587Z,105.47
2023-03-01T08:23:35.102Z,105.38
2023-03-01T08:26:10.147Z,103.78
2023-03-01T08:28:37.295Z,108.57
2023-03-01T08:31:04.567Z,107.13
2023-03-01T08:33:31.222Z,105.68
2023-03-01T08:36:05.616Z,104.93
2023-03-01T08:38:32.248Z,106.45
2023-03-01T08:41:03.965Z,102.53
2023-03-01T08:43:30.744Z,102.35
2023-03-01T08:45:57.452Z,102.47
2023-03-01T08:48:24.317Z,103.78
2023-03-01T08:50:51.159Z,104.97
2023-03-01T08:53:17.828Z,102.63
2023-03-01T08:55:44.464Z,102.43
2023-03-01T08:58:11.080Z,101.25
2023-03-01T09:00:38.587Z,98.22
2023-03-01T09:03:05.517Z,99.10
2023-03-01T09:05:35.325Z,100.85
2023-03-01T09:08:02.073Z,98.28
2023-03-01T09:10:28.900Z,99.72
2023-03-01T09:12:55.518Z,102.37
2023-03-01T09:15:22.131Z,98.47
2023-03-01T09:17:48.741Z,99.53
2023-03-01T09:20:15.386Z,100.45
2023-03-01T09:22:42.045Z,101.87
2023-03-01T09:25:08.845Z,96.53
2023-03-01T09:27:35.479Z,100.07
2023-03-01T09:30:02.614Z,100.80
2023-03-01T09:32:32.058Z,97.27
2023-03-01T09:35:07.640Z,98.63
2023-03-01T09:37:35.652Z,96.17
2023-03-01T09:40:04.895Z,98.27
2023-03-01T09:42:34.948Z,98.17
2023-03-01T09:45:12.426Z,94.90
2023-03-01T09:47:39.112Z,96.37
2023-03-01T09:50:18.310Z,96.10
2023-03-01T09:53:05.412Z,95.87
2023-03-01T09:55:40.297Z,98.07
2023-03-01T09:58:26.488Z,97.93
2023-03-01T10:00:53.236Z,93.60
2023-03-01T10:03:48.475Z,95.60
2023-03-01T10:06:33.898Z,96.33
2023-03-01T10:09:11.605Z,96.20
2023-03-01T10:11:42.237Z,93.17
2023-03-01T10:14:41.276Z,97.47
2023-03-01T10:17:24.906Z,96.57
2023-03-01T10:19:51.490Z,94.07
2023-03-01T10:22:29.374Z,93.87
2023-03-01T10:25:00.578Z,90.30
2023-03-01T10:27:39.871Z,92.97
2023-03-01T10:30:12.317Z,95.90
2023-03-01T10:32:39.292Z,92.60
2023-03-01T10:35:21.949Z,92.67
2023-03-01T10:38:03.542Z,94.93
2023-03-01T10:40:30.535Z,93.80
2023-03-01T10:43:01.075Z,96.17
2023-03-01T10:45:30.406Z,95.20
2023-03-01T10:48:08.765Z,92.77
2023-03-01T10:50:35.784Z,92.17
2023-03-01T10:53:05.029Z,95.00
2023-03-01T10:55:36.210Z,93.67
2023-03-01T10:58:23.215Z,95.50
2023-03-01T11:01:16.137Z,95.17
2023-03-01T11:03:42.947Z,93.93
2023-03-01T11:06:12.669Z,95.20
2023-03-01T11:08:47.569Z,93.97
2023-03-01T11:11:33.867Z,96.37
2023-03-01T11:14:26.497Z,97.90
2023-03-01T11:17:13.532Z,93.17
2023-03-01T11:19:40.100Z,91.87
2023-03-01T11:22:22.025Z,93.70
2023-03-01T11:25:07.386Z,91.93
2023-03-01T11:27:41.679Z,92.77
2023-03-01T11:30:29.775Z,91.30
2023-03-01T11:33:08.699Z,92.20
2023-03-01T11:35:38.999Z,92.63
2023-03-01T11:38:25.723Z,90.87
2023-03-01T11:41:22.783Z,93.43
2023-03-01T11:44:09.326Z,90.50
2023-03-01T11:46:38.803Z,91.47
2023-03-01T11:49:14.662Z,91.10
2023-03-01T11:51:54.172Z,90.80
2023-03-01T11:54:37.017Z,91.37
2023-03-01T11:57:15.642Z,95.07
2023-03-01T11:59:59.742Z,91.30
2023-03-01T12:03:00.109Z,90.83
2023-03-01T12:05:50.889Z,95.20
2023-03-01T12:08:54.998Z,91.70
2023-03-01T12:11:41.274Z,92.10
2023-03-01T12:14:37.039Z,90.60
2023-03-01T12:17:33.527Z,90.60
2023-03-01T12:20:22.897Z,92.60
2023-03-01T12:23:14.642Z,92.37
2023-03-01T12:26:02.202Z,91.87
2023-03-01T12:28:53.023Z,93.43
2023-03-01T12:31:38.766Z,91.20
2023-03-01T12:34:22.545Z,90.17
2023-03-01T12:36:54.502Z,89.17
2023-03-01T12:39:47.556Z,92.40
2023-03-01T12:42:32.242Z,91.50
2023-03-01T12:45:49.396Z,91.27
2023-03-01T12:48:16.002Z,91.13
2023-03-01T12:50:47.089Z,93.97
2023-03-01T12:53:36.315Z,94.57
2023-03-01T12:56:31.617Z,93.07
2023-03-01T12:59:27.126Z,91.80
2023-03-01T13:02:05.354Z,92.40
2023-03-01T13:05:05.824Z,93.77
2023-03-01T13:07:37.326Z,94.30
2023-03-01T13:10:54.882Z,93.23
2023-03-01T13:13:26.755Z,96.07
2023-03-01T13:15:54.430Z,97.37
2023-03-01T13:18:21.049Z,94.53
2023-03-01T13:20:56.251Z,95.13
2023-03-01T13:23:22.835Z,98.23
2023-03-01T13:26:01.116Z,94.10
2023-03-01T13:28:39.128Z,98.85
2023-03-01T13:31:08.075Z,96.43
2023-03-01T13:33:59.299Z,95.18
2023-03-01T13:36:28.948Z,94.38
2023-03-01T13:38:58.512Z,94.78
2023-03-01T13:41:40.372Z,101.65
2023-03-01T13:44:27.829Z,95.95
2023-03-01T13:47:08.152Z,95.28
2023-03-01T13:49:46.925Z,95.68
2023-03-01T13:52:41.644Z,98.82
2023-03-01T13:55:20.327Z,97.13
2023-03-01T13:57:54.418Z,95.28
2023-03-01T14:00:34.916Z,95.35
2023-03-01T14:03:06.150Z,95.88
2023-03-01T14:05:34.429Z,99.30
2023-03-01T14:08:01.146Z,102.45
2023-03-01T14:10:40.973Z,101.65
2023-03-01T14:13:26.253Z,102.20
2023-03-01T14:16:38.379Z,98.07
2023-03-01T14:19:33.238Z,97.90
2023-03-01T14:22:17.872Z,100.47
2023-03-01T14:24:55.244Z,97.50
2023-03-01T14:27:22.253Z,96.80
2023-03-01T14:30:04.467Z,100.68
2023-03-01T14:32:33.541Z,100.32
2023-03-01T14:35:01.380Z,99.97
2023-03-01T14:37:33.767Z,98.72
2023-03-01T14:40:02.695Z,102.95
2023-03-01T14:42:36.500Z,102.40
2023-03-01T14:45:05.006Z,97.82
2023-03-01T14:47:34.422Z,98.15
2023-03-01T14:50:27.222Z,102.10
2023-03-01T14:53:03.365Z,99.90
2023-03-01T14:55:31.735Z,98.13
2023-03-01T14:57:59.422Z,101.65
2023-03-01T15:00:31.074Z,100.88
2023-03-01T15:03:04.116Z,99.15
2023-03-01T15:05:32.962Z,98.38
2023-03-01T15:08:02.132Z,100.90
2023-03-01T15:10:32.219Z,101.85
2023-03-01T15:13:12.755Z,104.30
2023-03-01T15:15:48.100Z,99.95
2023-03-01T15:18:16.726Z,100.75
2023-03-01T15:20:43.816Z,99.40
2023-03-01T15:23:29.134Z,100.20
2023-03-01T15:25:59.470Z,102.90
2023-03-01T15:28:35.704Z,102.00
2023-03-01T15:31:08.418Z,98.78
2023-03-01T15:33:38.189Z,100.35
2023-03-01T15:36:33.003Z,100.18
2023-03-01T15:39:01.797Z,100.30
2023-03-01T15:41:34.233Z,99.50
2023-03-01T15:44:14.646Z,98.63
2023-03-01T15:46:46.277Z,101.53
2023-03-01T15:49:54.924Z,102.78
2023-03-01T15:52:40.065Z,100.55
2023-03-01T15:55:19.007Z,99.30
2023-03-01T15:57:46.206Z,101.03
2023-03-01T16:00:14.494Z,98.60
2023-03-01T16:02:42.697Z,100.07
2023-03-01T16:05:28.768Z,97.88
2023-03-01T16:07:55.814Z,99.82
2023-03-01T16:10:22.494Z,99.05
2023-03-01T16:12:50.633Z,100.88
2023-03-01T16:15:26.692Z,99.28
2023-03-01T16:17:53.307Z,101.25
2023-03-01T16:20:27.569Z,101.00
2023-03-01T16:22:54.953Z,100.18
2023-03-01T16:25:22.613Z,100.25
2023-03-01T16:27:51.207Z,99.88
2023-03-01T16:30:21.093Z,101.43
2023-03-01T16:32:49.002Z,100.00
2023-03-01T16:35:19.538Z,102.18
2023-03-01T16:37:46.536Z,99.32
2023-03-01T16:40:27.745Z,100.70
2023-03-01T16:42:56.556Z,101.93
2023-03-01T16:45:24.934Z,102.50
2023-03-01T16:47:56.148Z,102.40
2023-03-01T16:50:23.559Z,103.50
2023-03-01T16:52:50.491Z,100.60
2023-03-01T16:55:17.327Z,101.57
2023-03-01T16:57:44.018Z,101.90
2023-03-01T17:00:13.610Z,100.32
2023-03-01T17:02:41.959Z,101.60
2023-03-01T17:05:10.706Z,98.57
2023-03-01T17:07:37.461Z,101.65
2023-03-01T17:10:08.857Z,102.68
2023-03-01T17:12:36.128Z,102.85
2023-03-01T17:15:02.969Z,102.85
2023-03-01T17:17:29.665Z,106.93
2023-03-01T17:19:57.205Z,98.78
2023-03-01T17:22:23.942Z,97.63
2023-03-01T17:24:50.533Z,101.55
2023-03-01T17:27:18.359Z,103.22
2023-03-01T17:29:45.144Z,103.95
2023-03-01T17:32:12.011Z,102.65
2023-03-01T17:34:38.786Z,105.38
2023-03-01T17:37:05.562Z,100.00
2023-03-01T17:39:36.072Z,102.50
2023-03-01T17:42:05.140Z,101.15
2023-03-01T17:44:33.834Z,101.40
2023-03-01T17:47:01.436Z,105.07
2023-03-01T17:49:28.960Z,102.25
2023-03-01T17:51:55.639Z,102.60
2023-03-01T17:54:22.316Z,103.15
2023-03-01T17:56:49.196Z,102.78
2023-03-01T17:59:17.604Z,102.72
2023-03-01T18:01:44.352Z,103.20
2023-03-01T18:04:11.252Z,99.32
2023-03-01T18:06:38.649Z,103.45
2023-03-01T18:09:05.332Z,102.18
2023-03-01T18:11:34.960Z,101.55
2023-03-01T18:14:02.138Z,103.60
2023-03-01T18:16:31.515Z,101.80
2023-03-01T18:18:58.843Z,101.82
2023-03-01T18:21:25.489Z,102.40
2023-03-01T18:23:52.663Z,101.93
2023-03-01T18:26:22.096Z,104.30
2023-03-01T18:28:51.569Z,106.22
2023-03-01T18:31:22.218Z,108.65
2023-03-01T18:33:51.175Z,102.50
2023-03-01T18:36:20.642Z,106.03
2023-03-01T18:38:48.563Z,100.65
2023-03-01T18:41:16.021Z,101.88
2023-03-01T18:43:42.659Z,103.07
2023-03-01T18:46:09.504Z,104.32
2023-03-01T18:48:36.897Z,100.38
2023-03-01T18:51:12.064Z,109.10
2023-03-01T18:53:38.806Z,105.07
2023-03-01T18:56:06.571Z,105.22
2023-03-01T18:58:33.532Z,101.30
2023-03-01T19:01:01.354Z,104.53
2023-03-01T19:03:28.880Z,107.68
2023-03-01T19:05:56.853Z,101.07
2023-03-01T19:08:23.480Z,103.03
2023-03-01T19:11:01.563Z,100.57
2023-03-01T19:13:28.645Z,104.03
2023-03-01T19:16:07.655Z,105.15
2023-03-01T19:18:35.169Z,101.07
2023-03-01T19:21:04.576Z,100.55
2023-03-01T19:23:34.918Z,102.68
2023-03-01T19:26:03.706Z,103.28
2023-03-01T19:28:30.734Z,102.93
2023-03-01T19:31:02.502Z,104.40
2023-03-01T19:33:30.912Z,101.93
2023-03-01T19:35:58.875Z,102.97
2023-03-01T19:38:26.297Z,103.75
2023-03-01T19:40:53.209Z,104.70
2023-03-01T19:43:19.903Z,105.82
2023-03-01T19:45:54.089Z,105.28
2023-03-01T19:48:21.479Z,102.53
2023-03-01T19:50:48.671Z,105.93
2023-03-01T19:53:15.960Z,105.28
2023-03-01T19:55:42.637Z,102.35
2023-03-01T19:58:10.464Z,105.45
2023-03-01T20:00:38.746Z,104.90
2023-03-01T20:03:06.180Z,104.30
2023-03-01T20:05:37.441Z,108.97
2023-03-01T20:08:05.163Z,107.03
2023-03-01T20:10:33.864Z,102.63
2023-03-01T20:13:02.579Z,101.93
2023-03-01T20:15:29.827Z,105.13
2023-03-01T20:17:56.747Z,104.60
2023-03-01T20:20:23.601Z,102.82
2023-03-01T20:22:50.228Z,104.85
2023-03-01T20:25:17.427Z,103.25
2023-03-01T20:27:47.382Z,106.85
2023-03-01T20:30:16.077Z,104.68
2023-03-01T20:32:43.527Z,105.93
2023-03-01T20:35:11.582Z,101.85
2023-03-01T20:37:38.440Z,108.18
2023-03-01T20:40:05.631Z,109.85
2023-03-01T20:42:32.368Z,104.88
2023-03-01T20:44:58.968Z,106.93
2023-03-01T20:47:25.672Z,105.80
2023-03-01T20:49:52.438Z,103.20
2023-03-01T20:52:19.083Z,105.68
2023-03-01T20:54:45.744Z,104.05
2023-03-01T20:57:12.403Z,101.88
2023-03-01T20:59:38.991Z,105.03
2023-03-01T21:02:05.675Z,103.20
2023-03-01T21:04:32.315Z,111.43
2023-03-01T21:06:58.947Z,104.00
2023-03-01T21:09:25.571Z,105.75
2023-03-01T21:11:52.287Z,101.13
2023-03-01T21:14:18.905Z,104.20
2023-03-01T21:16:45.773Z,101.70
2023-03-01T21:19:12.663Z,106.25
2023-03-01T21:21:39.349Z,108.05
2023-03-01T21:24:10.023Z,105.50
2023-03-01T21:26:36.957Z,103.45
2023-03-01T21:29:03.817Z,103.28
2023-03-01T21:31:34.644Z,106.88
2023-03-01T21:34:04.854Z,102.97
2023-03-01T21:36:33.008Z,108.72
2023-03-01T21:39:01.802Z,106.80
2023-03-01T21:41:31.014Z,105.50
2023-03-01T21:44:06.678Z,106.22
2023-03-01T21:46:36.806Z,104.45
2023-03-01T21:49:04.779Z,106.97
2023-03-01T21:51:32.176Z,103.80
2023-03-01T21:54:01.148Z,106.10
2023-03-01T21:56:31.498Z,106.53
2023-03-01T21:58:58.773Z,107.65
2023-03-01T22:01:29.809Z,103.43
2023-03-01T22:03:58.612Z,110.07
2023-03-01T22:06:35.211Z,101.82
2023-03-01T22:09:05.926Z,100.65
2023-03-01T22:11:34.571Z,106.78
2023-03-01T22:14:01.531Z,106.55
2023-03-01T22:16:31.497Z,109.63
2023-03-01T22:18:59.223Z,105.05
2023-03-01T22:21:26.736Z,101.53
2023-03-01T22:23:54.806Z,104.63
2023-03-01T22:26:26.291Z,105.85
2023-03-01T22:28:54.689Z,109.30
2023-03-01T22:31:21.793Z,103.35
2023-03-01T22:33:49.391Z,103.55
2023-03-01T22:36:16.189Z,106.68
2023-03-01T22:38:42.837Z,107.80
2023-03-01T22:41:09.681Z,107.65
2023-03-01T22:43:36.605Z,103.55
2023-03-01T22:46:15.768Z,106.55
2023-03-01T22:48:42.424Z,102.35
2023-03-01T22:51:14.694Z,105.13
2023-03-01T22:53:41.368Z,106.72
2023-03-01T22:56:16.161Z,104.07
2023-03-01T22:58:43.829Z,107.40
2023-03-01T23:01:12.442Z,103.45
2023-03-01T23:03:39.082Z,103.47
2023-03-01T23:06:05.830Z,106.35
2023-03-01T23:08:32.436Z,103.43
2023-03-01T23:10:59.141Z,103.35
2023-03-01T23:13:25.900Z,102.30
2023-03-01T23:15:57.031Z,105.50
2023-03-01T23:18:23.828Z,105.75
2023-03-01T23:20:50.453Z,104.78
2023-03-01T23:23:17.087Z,102.45
2023-03-01T23:25:53.435Z,106.80
2023-03-01T23:28:20.373Z,102.32
2023-03-01T23:30:58.445Z,109.00
2023-03-01T23:33:26.211Z,106.70
2023-03-01T23:35:52.868Z,103.35
2023-03-01T23:38:22.757Z,104.25
2023-03-01T23:40:49.418Z,105.50
2023-03-01T23:43:16.284Z,106.80
2023-03-01T23:45:43.269Z,103.10
2023-03-01T23:48:12.070Z,106.60
2023-03-01T23:50:41.944Z,106.30
2023-03-01T23:53:10.825Z,105.43
2023-03-01T23:55:38.966Z,104.30
2023-03-01T23:58:05.887Z,108.95
